sensor_id;sensor_type;location;lat;lon;timestamp;pressure;altitude;pressure_sealevel;temperature;humidity
69766;BME280;57039;48.014;21.384;2023-03-16T00:00:43;100512.06;;;3.96;91.40
69766;BME280;57039;48.014;21.384;2023-03-16T00:01:46;100507.66;;;3.98;90.35
69766;BME280;57039;48.014;21.384;2023-03-16T00:02:49;100507.66;;;3.98;90.23
69766;BME280;57039;48.014;21.384;2023-03-16T00:03:53;100512.00;;;3.97;90.79
69766;BME280;57039;48.014;21.384;2023-03-16T00:05:00;100514.66;;;3.96;90.28
69766;BME280;57039;48.014;21.384;2023-03-16T00:06:03;100509.47;;;3.96;91.03
69766;BME280;57039;48.014;21.384;2023-03-16T00:07:08;100506.91;;;3.94;91.12
69766;BME280;57039;48.014;21.384;2023-03-16T00:08:11;100517.28;;;3.94;91.79
69766;BME280;57039;48.014;21.384;2023-03-16T00:09:14;100509.50;;;3.94;91.53
69766;BME280;57039;48.014;21.384;2023-03-16T00:10:17;100510.47;;;3.90;91.29
69766;BME280;57039;48.014;21.384;2023-03-16T00:11:20;100508.72;;;3.92;91.09
69766;BME280;57039;48.014;21.384;2023-03-16T00:12:23;100523.41;;;3.92;91.80
69766;BME280;57039;48.014;21.384;2023-03-16T00:13:28;100521.72;;;3.91;90.43
69766;BME280;57039;48.014;21.384;2023-03-16T00:14:31;100519.13;;;3.91;91.33
69766;BME280;57039;48.014;21.384;2023-03-16T00:15:54;100513.03;;;3.92;90.76
69766;BME280;57039;48.014;21.384;2023-03-16T00:16:57;100523.41;;;3.92;91.25
69766;BME280;57039;48.014;21.384;2023-03-16T00:18:01;100518.25;;;3.90;90.57
69766;BME280;57039;48.014;21.384;2023-03-16T00:19:04;100519.13;;;3.91;90.48
69766;BME280;57039;48.014;21.384;2023-03-16T00:20:08;100525.16;;;3.91;89.63
69766;BME280;57039;48.014;21.384;2023-03-16T00:21:12;100522.56;;;3.91;90.18
69766;BME280;57039;48.014;21.384;2023-03-16T00:22:15;100518.37;;;3.85;90.20
69766;BME280;57039;48.014;21.384;2023-03-16T00:23:19;100526.91;;;3.91;90.25
69766;BME280;57039;48.014;21.384;2023-03-16T00:24:28;100526.06;;;3.90;90.05
69766;BME280;57039;48.014;21.384;2023-03-16T00:25:31;100527.81;;;3.89;90.69
69766;BME280;57039;48.014;21.384;2023-03-16T00:26:35;100521.75;;;3.89;90.26
69766;BME280;57039;48.014;21.384;2023-03-16T00:27:37;100516.78;;;3.81;90.84
69766;BME280;57039;48.014;21.384;2023-03-16T00:28:40;100520.88;;;3.88;90.48
69766;BME280;57039;48.014;21.384;2023-03-16T00:29:45;100520.09;;;3.86;90.48
69766;BME280;57039;48.014;21.384;2023-03-16T00:30:49;100526.16;;;3.85;90.69
69766;BME280;57039;48.014;21.384;2023-03-16T00:31:52;100523.56;;;3.85;90.54
69766;BME280;57039;48.014;21.384;2023-03-16T00:32:55;100511.66;;;3.78;90.15
69766;BME280;57039;48.014;21.384;2023-03-16T00:33:58;100527.88;;;3.86;90.38
69766;BME280;57039;48.014;21.384;2023-03-16T00:35:03;100521.97;;;3.81;90.84
69766;BME280;57039;48.014;21.384;2023-03-16T00:36:08;100522.72;;;3.85;90.52
69766;BME280;57039;48.014;21.384;2023-03-16T00:37:15;100522.69;;;3.86;90.48
69766;BME280;57039;48.014;21.384;2023-03-16T00:38:19;100527.91;;;3.85;90.66
69766;BME280;57039;48.014;21.384;2023-03-16T00:39:22;100528.75;;;3.85;90.63
69766;BME280;57039;48.014;21.384;2023-03-16T00:40:25;100509.09;;;3.77;90.75
69766;BME280;57039;48.014;21.384;2023-03-16T00:41:28;100530.47;;;3.86;91.06
69766;BME280;57039;48.014;21.384;2023-03-16T00:42:31;100537.41;;;3.86;91.18
69766;BME280;57039;48.014;21.384;2023-03-16T00:43:36;100533.09;;;3.85;90.94
69766;BME280;57039;48.014;21.384;2023-03-16T00:44:47;100533.09;;;3.85;90.35
69766;BME280;57039;48.014;21.384;2023-03-16T00:45:49;100539.13;;;3.85;90.34
69766;BME280;57039;48.014;21.384;2023-03-16T00:46:55;100531.28;;;3.88;89.34
69766;BME280;57039;48.014;21.384;2023-03-16T00:47:58;100537.34;;;3.89;89.02
69766;BME280;57039;48.014;21.384;2023-03-16T00:49:01;100532.94;;;3.91;87.02
69766;BME280;57039;48.014;21.384;2023-03-16T00:50:06;100534.66;;;3.92;88.66
69766;BME280;57039;48.014;21.384;2023-03-16T00:51:12;100535.59;;;3.89;89.05
69766;BME280;57039;48.014;21.384;2023-03-16T00:52:16;100540.94;;;3.83;89.52
69766;BME280;57039;48.014;21.384;2023-03-16T00:53:19;100552.03;;;3.88;89.33
69766;BME280;57039;48.014;21.384;2023-03-16T00:54:23;100547.81;;;3.86;89.66
69766;BME280;57039;48.014;21.384;2023-03-16T00:55:26;100544.31;;;3.85;89.40
69766;BME280;57039;48.014;21.384;2023-03-16T00:56:30;100544.41;;;3.82;89.07
69766;BME280;57039;48.014;21.384;2023-03-16T00:57:34;100550.41;;;3.86;88.01
69766;BME280;57039;48.014;21.384;2023-03-16T00:58:38;100544.22;;;3.90;87.63
69766;BME280;57039;48.014;21.384;2023-03-16T00:59:46;100551.16;;;3.89;87.88
69766;BME280;57039;48.014;21.384;2023-03-16T01:00:49;100551.16;;;3.89;87.82
69766;BME280;57039;48.014;21.384;2023-03-16T01:01:54;100550.31;;;3.89;87.07
69766;BME280;57039;48.014;21.384;2023-03-16T01:02:57;100552.00;;;3.90;87.10
69766;BME280;57039;48.014;21.384;2023-03-16T01:04:00;100544.31;;;3.85;88.05
69766;BME280;57039;48.014;21.384;2023-03-16T01:05:03;100552.94;;;3.87;87.71
69766;BME280;57039;48.014;21.384;2023-03-16T01:06:10;100537.53;;;3.81;87.64
69766;BME280;57039;48.014;21.384;2023-03-16T01:07:23;100545.97;;;3.89;86.64
69766;BME280;57039;48.014;21.384;2023-03-16T01:08:26;100540.88;;;3.85;87.05
69766;BME280;57039;48.014;21.384;2023-03-16T01:09:32;100543.56;;;3.82;87.32
69766;BME280;57039;48.014;21.384;2023-03-16T01:10:38;100540.94;;;3.83;86.63
69766;BME280;57039;48.014;21.384;2023-03-16T01:11:42;100541.66;;;3.88;86.30
69766;BME280;57039;48.014;21.384;2023-03-16T01:12:45;100551.16;;;3.89;85.84
69766;BME280;57039;48.014;21.384;2023-03-16T01:13:49;100553.75;;;3.89;85.54
69766;BME280;57039;48.014;21.384;2023-03-16T01:14:56;100557.12;;;3.92;85.78
69766;BME280;57039;48.014;21.384;2023-03-16T01:16:00;100540.94;;;3.83;86.46
69766;BME280;57039;48.014;21.384;2023-03-16T01:17:05;100537.53;;;3.81;85.63
69766;BME280;57039;48.014;21.384;2023-03-16T01:18:10;100552.00;;;3.90;85.82
69766;BME280;57039;48.014;21.384;2023-03-16T01:19:15;100557.22;;;3.88;85.37
69766;BME280;57039;48.014;21.384;2023-03-16T01:20:17;100552.00;;;3.90;85.47
69766;BME280;57039;48.014;21.384;2023-03-16T01:21:21;100559.81;;;3.88;85.54
69766;BME280;57039;48.014;21.384;2023-03-16T01:22:25;100552.91;;;3.89;85.88
69766;BME280;57039;48.014;21.384;2023-03-16T01:23:29;100552.94;;;3.87;85.22
69766;BME280;57039;48.014;21.384;2023-03-16T01:24:33;100555.50;;;3.89;85.58
69766;BME280;57039;48.014;21.384;2023-03-16T01:25:38;100559.03;;;3.86;85.69
69766;BME280;57039;48.014;21.384;2023-03-16T01:26:42;100552.94;;;3.87;85.47
69766;BME280;57039;48.014;21.384;2023-03-16T01:27:47;100544.50;;;3.79;85.29
69766;BME280;57039;48.014;21.384;2023-03-16T01:28:50;100556.44;;;3.86;85.22
69766;BME280;57039;48.014;21.384;2023-03-16T01:29:53;100559.03;;;3.86;85.20
69766;BME280;57039;48.014;21.384;2023-03-16T01:31:05;100553.84;;;3.86;85.30
69766;BME280;57039;48.014;21.384;2023-03-16T01:32:08;100558.13;;;3.87;84.47
69766;BME280;57039;48.014;21.384;2023-03-16T01:33:12;100557.22;;;3.88;84.74
69766;BME280;57039;48.014;21.384;2023-03-16T01:34:15;100559.81;;;3.88;85.25
69766;BME280;57039;48.014;21.384;2023-03-16T01:35:20;100559.91;;;3.85;85.62
69766;BME280;57039;48.014;21.384;2023-03-16T01:36:24;100566.81;;;3.86;84.57
69766;BME280;57039;48.014;21.384;2023-03-16T01:37:26;100558.97;;;3.88;83.68
69766;BME280;57039;48.014;21.384;2023-03-16T01:38:30;100559.81;;;3.88;84.34
69766;BME280;57039;48.014;21.384;2023-03-16T01:39:33;100568.50;;;3.87;84.63
69766;BME280;57039;48.014;21.384;2023-03-16T01:40:36;100559.81;;;3.88;84.11
69766;BME280;57039;48.014;21.384;2023-03-16T01:41:40;100569.34;;;3.88;84.51
69766;BME280;57039;48.014;21.384;2023-03-16T01:42:59;100565.91;;;3.87;83.88
69766;BME280;57039;48.014;21.384;2023-03-16T01:44:04;100560.72;;;3.87;84.70
69766;BME280;57039;48.014;21.384;2023-03-16T01:46:49;100559.81;;;3.88;82.88
69766;BME280;57039;48.014;21.384;2023-03-16T01:47:52;100556.34;;;3.89;83.33
69766;BME280;57039;48.014;21.384;2023-03-16T01:49:22;100559.78;;;3.90;83.65
69766;BME280;57039;48.014;21.384;2023-03-16T01:50:27;100552.00;;;3.90;84.15
69766;BME280;57039;48.014;21.384;2023-03-16T01:52:53;100555.59;;;3.86;83.59
69766;BME280;57039;48.014;21.384;2023-03-16T01:54:00;100558.97;;;3.88;82.77
69766;BME280;57039;48.014;21.384;2023-03-16T01:55:07;100551.19;;;3.88;83.57
69766;BME280;57039;48.014;21.384;2023-03-16T01:56:13;100559.06;;;3.85;84.05
69766;BME280;57039;48.014;21.384;2023-03-16T01:57:30;100550.41;;;3.84;82.83
69766;BME280;57039;48.014;21.384;2023-03-16T01:58:37;100558.97;;;3.88;82.95
69766;BME280;57039;48.014;21.384;2023-03-16T01:59:49;100560.81;;;3.84;82.96
69766;BME280;57039;48.014;21.384;2023-03-16T02:00:54;100557.34;;;3.84;83.07
69766;BME280;57039;48.014;21.384;2023-03-16T02:02:00;100558.28;;;3.81;83.93
69766;BME280;57039;48.014;21.384;2023-03-16T02:03:11;100557.53;;;3.78;84.67
69766;BME280;57039;48.014;21.384;2023-03-16T02:05:36;100561.78;;;3.80;83.17
69766;BME280;57039;48.014;21.384;2023-03-16T02:06:41;100566.03;;;3.83;83.28
69766;BME280;57039;48.014;21.384;2023-03-16T02:07:50;100564.38;;;3.80;83.16
69766;BME280;57039;48.014;21.384;2023-03-16T02:08:54;100560.06;;;3.79;83.56
69766;BME280;57039;48.014;21.384;2023-03-16T02:09:59;100565.25;;;3.79;82.98
69766;BME280;57039;48.014;21.384;2023-03-16T02:11:06;100572.09;;;3.82;82.56
69766;BME280;57039;48.014;21.384;2023-03-16T02:12:11;100565.22;;;3.81;83.12
69766;BME280;57039;48.014;21.384;2023-03-16T02:13:24;100572.25;;;3.77;84.50
69766;BME280;57039;48.014;21.384;2023-03-16T02:14:27;100563.56;;;3.78;83.54
69766;BME280;57039;48.014;21.384;2023-03-16T02:15:31;100570.44;;;3.79;83.79
69766;BME280;57039;48.014;21.384;2023-03-16T02:16:34;100561.12;;;3.72;84.30
69766;BME280;57039;48.014;21.384;2023-03-16T02:17:37;100566.19;;;3.77;84.53
69766;BME280;57039;48.014;21.384;2023-03-16T02:18:41;100571.44;;;3.75;84.58
69766;BME280;57039;48.014;21.384;2023-03-16T02:21:44;100571.44;;;3.74;84.38
69766;BME280;57039;48.014;21.384;2023-03-16T02:22:52;100567.09;;;3.76;83.93
69766;BME280;57039;48.014;21.384;2023-03-16T02:23:59;100570.59;;;3.73;84.62
69766;BME280;57039;48.014;21.384;2023-03-16T02:25:04;100576.69;;;3.72;85.33
69766;BME280;57039;48.014;21.384;2023-03-16T02:27:48;100575.87;;;3.70;84.42
69766;BME280;57039;48.014;21.384;2023-03-16T02:30:13;100577.59;;;3.71;84.67
69766;BME280;57039;48.014;21.384;2023-03-16T02:31:18;100582.72;;;3.73;83.92
69766;BME280;57039;48.014;21.384;2023-03-16T02:32:23;100569.97;;;3.65;83.80
69766;BME280;57039;48.014;21.384;2023-03-16T02:33:28;100585.31;;;3.73;84.50
69766;BME280;57039;48.014;21.384;2023-03-16T02:34:33;100585.31;;;3.73;83.55
69766;BME280;57039;48.014;21.384;2023-03-16T02:35:36;100582.72;;;3.74;83.86
69766;BME280;57039;48.014;21.384;2023-03-16T02:36:43;100591.34;;;3.73;83.86
69766;BME280;57039;48.014;21.384;2023-03-16T02:37:47;100586.22;;;3.72;84.96
69766;BME280;57039;48.014;21.384;2023-03-16T02:38:50;100582.72;;;3.74;82.99
69766;BME280;57039;48.014;21.384;2023-03-16T02:39:53;100582.63;;;3.77;82.63
69766;BME280;57039;48.014;21.384;2023-03-16T02:41:00;100590.50;;;3.74;83.48
69766;BME280;57039;48.014;21.384;2023-03-16T02:42:17;100587.91;;;3.74;83.87
69766;BME280;57039;48.014;21.384;2023-03-16T02:43:24;100586.16;;;3.73;83.49
69766;BME280;57039;48.014;21.384;2023-03-16T02:44:32;100583.63;;;3.72;84.10
69766;BME280;57039;48.014;21.384;2023-03-16T02:45:46;100586.22;;;3.72;83.25
69766;BME280;57039;48.014;21.384;2023-03-16T02:46:53;100589.69;;;3.71;84.08
69766;BME280;57039;48.014;21.384;2023-03-16T02:48:01;100589.75;;;3.69;84.82
69766;BME280;57039;48.014;21.384;2023-03-16T02:49:12;100587.97;;;3.71;82.95
69766;BME280;57039;48.014;21.384;2023-03-16T02:50:18;100588.00;;;3.70;83.53
69766;BME280;57039;48.014;21.384;2023-03-16T02:51:21;100592.28;;;3.71;83.41
69766;BME280;57039;48.014;21.384;2023-03-16T02:52:23;100596.63;;;3.70;83.25
69766;BME280;57039;48.014;21.384;2023-03-16T02:53:26;100588.91;;;3.69;83.91
69766;BME280;57039;48.014;21.384;2023-03-16T02:54:29;100596.63;;;3.70;82.58
69766;BME280;57039;48.014;21.384;2023-03-16T02:55:32;100591.44;;;3.70;83.35
69766;BME280;57039;48.014;21.384;2023-03-16T02:56:35;100592.28;;;3.71;82.90
69766;BME280;57039;48.014;21.384;2023-03-16T02:57:38;100593.09;;;3.73;82.42
69766;BME280;57039;48.014;21.384;2023-03-16T02:58:41;100602.66;;;3.71;83.40
69766;BME280;57039;48.014;21.384;2023-03-16T02:59:44;100596.63;;;3.70;82.68
69766;BME280;57039;48.014;21.384;2023-03-16T03:00:47;100589.06;;;3.62;82.36
69766;BME280;57039;48.014;21.384;2023-03-16T03:01:50;100604.41;;;3.70;82.35
69766;BME280;57039;48.014;21.384;2023-03-16T03:02:53;100602.72;;;3.69;82.66
69766;BME280;57039;48.014;21.384;2023-03-16T03:03:56;100607.00;;;3.70;82.03
69766;BME280;57039;48.014;21.384;2023-03-16T03:04:59;100602.72;;;3.69;82.27
69766;BME280;57039;48.014;21.384;2023-03-16T03:06:03;100607.06;;;3.69;82.50
69766;BME280;57039;48.014;21.384;2023-03-16T03:07:08;100604.47;;;3.69;81.93
69766;BME280;57039;48.014;21.384;2023-03-16T03:08:13;100611.41;;;3.68;82.63
69766;BME280;57039;48.014;21.384;2023-03-16T03:09:18;100612.28;;;3.67;82.36
69766;BME280;57039;48.014;21.384;2023-03-16T03:10:22;100617.50;;;3.65;82.42
69766;BME280;57039;48.014;21.384;2023-03-16T03:11:25;100598.50;;;3.65;82.52
69766;BME280;57039;48.014;21.384;2023-03-16T03:12:28;100612.31;;;3.65;81.80
69766;BME280;57039;48.014;21.384;2023-03-16T03:13:30;100607.97;;;3.66;81.90
69766;BME280;57039;48.014;21.384;2023-03-16T03:14:34;100610.56;;;3.66;82.03
69766;BME280;57039;48.014;21.384;2023-03-16T03:15:40;100607.97;;;3.66;82.29
69766;BME280;57039;48.014;21.384;2023-03-16T03:16:44;100620.13;;;3.64;83.11
69766;BME280;57039;48.014;21.384;2023-03-16T03:17:48;100620.13;;;3.64;81.98
69766;BME280;57039;48.014;21.384;2023-03-16T03:19:10;100617.53;;;3.64;82.60
69766;BME280;57039;48.014;21.384;2023-03-16T03:22:08;100608.97;;;3.60;82.41
69766;BME280;57039;48.014;21.384;2023-03-16T03:23:12;100622.81;;;3.61;82.79
69766;BME280;57039;48.014;21.384;2023-03-16T03:24:17;100627.13;;;3.60;82.80
69766;BME280;57039;48.014;21.384;2023-03-16T03:25:21;100625.41;;;3.61;82.28
69766;BME280;57039;48.014;21.384;2023-03-16T03:26:26;100624.56;;;3.59;83.23
69766;BME280;57039;48.014;21.384;2023-03-16T03:27:32;100628.06;;;3.58;83.49
69766;BME280;57039;48.014;21.384;2023-03-16T03:28:38;100623.78;;;3.55;82.85
69766;BME280;57039;48.014;21.384;2023-03-16T03:29:42;100635.84;;;3.58;82.81
69766;BME280;57039;48.014;21.384;2023-03-16T03:30:46;100635.03;;;3.56;83.98
69766;BME280;57039;48.014;21.384;2023-03-16T03:31:50;100623.03;;;3.52;82.81
69766;BME280;57039;48.014;21.384;2023-03-16T03:32:53;100628.06;;;3.58;82.62
69766;BME280;57039;48.014;21.384;2023-03-16T03:33:57;100643.63;;;3.58;83.11
69766;BME280;57039;48.014;21.384;2023-03-16T03:35:00;100582.28;;;3.21;83.00
69766;BME280;57039;48.014;21.384;2023-03-16T03:36:04;100635.03;;;3.56;82.61
69766;BME280;57039;48.014;21.384;2023-03-16T03:37:08;100645.31;;;3.59;82.66
69766;BME280;57039;48.014;21.384;2023-03-16T03:38:15;100639.28;;;3.58;82.50
69766;BME280;57039;48.014;21.384;2023-03-16T03:39:18;100654.81;;;3.60;82.41
69766;BME280;57039;48.014;21.384;2023-03-16T03:40:24;100640.97;;;3.61;82.72
69766;BME280;57039;48.014;21.384;2023-03-16T03:41:30;100651.47;;;3.56;83.16
69766;BME280;57039;48.014;21.384;2023-03-16T03:42:35;100646.22;;;3.58;83.09
69766;BME280;57039;48.014;21.384;2023-03-16T03:43:39;100654.00;;;3.58;83.16
69766;BME280;57039;48.014;21.384;2023-03-16T03:44:46;100651.41;;;3.58;83.72
69766;BME280;57039;48.014;21.384;2023-03-16T03:45:55;100654.91;;;3.55;83.88
69766;BME280;57039;48.014;21.384;2023-03-16T03:46:59;100654.06;;;3.55;84.36
69766;BME280;57039;48.014;21.384;2023-03-16T03:48:03;100663.56;;;3.56;83.51
69766;BME280;57039;48.014;21.384;2023-03-16T03:49:08;100654.13;;;3.53;84.17
69766;BME280;57039;48.014;21.384;2023-03-16T03:50:12;100662.75;;;3.54;84.50
69766;BME280;57039;48.014;21.384;2023-03-16T03:51:16;100653.31;;;3.51;84.01
69766;BME280;57039;48.014;21.384;2023-03-16T03:52:20;100661.91;;;3.53;83.62
69766;BME280;57039;48.014;21.384;2023-03-16T03:53:24;100671.41;;;3.53;83.87
69766;BME280;57039;48.014;21.384;2023-03-16T03:54:28;100665.38;;;3.52;84.26
69766;BME280;57039;48.014;21.384;2023-03-16T03:55:31;100665.28;;;3.55;83.23
69766;BME280;57039;48.014;21.384;2023-03-16T03:56:35;100669.62;;;3.55;83.12
69766;BME280;57039;48.014;21.384;2023-03-16T03:57:39;100673.94;;;3.56;83.58
69766;BME280;57039;48.014;21.384;2023-03-16T03:58:43;100673.97;;;3.54;83.92
69766;BME280;57039;48.014;21.384;2023-03-16T03:59:47;100679.19;;;3.53;83.85
69766;BME280;57039;48.014;21.384;2023-03-16T04:00:54;100675.72;;;3.54;83.88
69766;BME280;57039;48.014;21.384;2023-03-16T04:01:58;100674.91;;;3.52;83.68
69766;BME280;57039;48.014;21.384;2023-03-16T04:03:02;100675.72;;;3.54;83.31
69766;BME280;57039;48.014;21.384;2023-03-16T04:04:06;100683.44;;;3.55;83.03
69766;BME280;57039;48.014;21.384;2023-03-16T04:05:10;100683.44;;;3.55;83.72
69766;BME280;57039;48.014;21.384;2023-03-16T04:06:13;100688.63;;;3.57;82.31
69766;BME280;57039;48.014;21.384;2023-03-16T04:07:16;100694.59;;;3.59;82.59
69766;BME280;57039;48.014;21.384;2023-03-16T04:08:20;100687.63;;;3.62;81.33
69766;BME280;57039;48.014;21.384;2023-03-16T04:09:23;100693.66;;;3.63;82.73
69766;BME280;57039;48.014;21.384;2023-03-16T04:10:28;100683.50;;;3.54;82.07
69766;BME280;57039;48.014;21.384;2023-03-16T04:11:33;100697.19;;;3.60;82.51
69766;BME280;57039;48.014;21.384;2023-03-16T04:12:37;100696.34;;;3.60;82.30
69766;BME280;57039;48.014;21.384;2023-03-16T04:13:50;100691.22;;;3.57;82.20
69766;BME280;57039;48.014;21.384;2023-03-16T04:14:54;100696.28;;;3.61;82.23
69766;BME280;57039;48.014;21.384;2023-03-16T04:15:59;100698.16;;;3.56;83.28
69766;BME280;57039;48.014;21.384;2023-03-16T04:17:05;100698.22;;;3.53;83.68
69766;BME280;57039;48.014;21.384;2023-03-16T04:18:10;100694.81;;;3.50;82.89
69766;BME280;57039;48.014;21.384;2023-03-16T04:19:17;100705.09;;;3.54;83.42
69766;BME280;57039;48.014;21.384;2023-03-16T04:20:21;100706.00;;;3.53;83.25
69766;BME280;57039;48.014;21.384;2023-03-16T04:21:26;100712.91;;;3.53;83.78
69766;BME280;57039;48.014;21.384;2023-03-16T04:22:29;100715.56;;;3.51;83.23
69766;BME280;57039;48.014;21.384;2023-03-16T04:23:33;100698.37;;;3.46;82.97
69766;BME280;57039;48.014;21.384;2023-03-16T04:24:37;100719.75;;;3.55;83.22
69766;BME280;57039;48.014;21.384;2023-03-16T04:25:40;100720.66;;;3.54;82.98
69766;BME280;57039;48.014;21.384;2023-03-16T04:26:44;100719.81;;;3.54;83.74
69766;BME280;57039;48.014;21.384;2023-03-16T04:27:48;100721.59;;;3.52;83.33
69766;BME280;57039;48.014;21.384;2023-03-16T04:28:52;100731.06;;;3.53;83.43
69766;BME280;57039;48.014;21.384;2023-03-16T04:29:56;100724.22;;;3.50;83.68
69766;BME280;57039;48.014;21.384;2023-03-16T04:31:07;100727.63;;;3.52;83.12
69766;BME280;57039;48.014;21.384;2023-03-16T04:32:11;100725.94;;;3.50;83.72
69766;BME280;57039;48.014;21.384;2023-03-16T04:33:15;100731.97;;;3.52;83.58
69766;BME280;57039;48.014;21.384;2023-03-16T04:34:20;100741.50;;;3.51;83.07
69766;BME280;57039;48.014;21.384;2023-03-16T04:35:28;100734.56;;;3.52;83.61
69766;BME280;57039;48.014;21.384;2023-03-16T04:36:31;100737.97;;;3.54;82.87
69766;BME280;57039;48.014;21.384;2023-03-16T04:37:35;100743.13;;;3.55;82.69
69766;BME280;57039;48.014;21.384;2023-03-16T04:38:39;100740.50;;;3.57;82.52
69766;BME280;57039;48.014;21.384;2023-03-16T04:39:44;100743.03;;;3.58;82.75
69766;BME280;57039;48.014;21.384;2023-03-16T04:40:48;100746.47;;;3.59;82.77
69766;BME280;57039;48.014;21.384;2023-03-16T04:41:52;100749.13;;;3.57;83.65
69766;BME280;57039;48.014;21.384;2023-03-16T04:42:56;100750.03;;;3.55;83.68
69766;BME280;57039;48.014;21.384;2023-03-16T04:43:59;100750.03;;;3.55;83.89
69766;BME280;57039;48.014;21.384;2023-03-16T04:45:03;100754.41;;;3.53;84.01
69766;BME280;57039;48.014;21.384;2023-03-16T04:46:14;100751.87;;;3.51;84.17
69766;BME280;57039;48.014;21.384;2023-03-16T04:47:17;100750.97;;;3.52;83.90
69766;BME280;57039;48.014;21.384;2023-03-16T04:48:21;100758.75;;;3.52;84.15
69766;BME280;57039;48.014;21.384;2023-03-16T04:49:24;100753.56;;;3.52;84.21
69766;BME280;57039;48.014;21.384;2023-03-16T04:50:30;100753.59;;;3.51;84.48
69766;BME280;57039;48.014;21.384;2023-03-16T04:51:36;100758.81;;;3.49;84.63
69766;BME280;57039;48.014;21.384;2023-03-16T04:52:39;100759.66;;;3.50;84.80
69766;BME280;57039;48.014;21.384;2023-03-16T04:53:43;100754.47;;;3.50;85.05
69766;BME280;57039;48.014;21.384;2023-03-16T04:54:46;100761.41;;;3.49;85.42
69766;BME280;57039;48.014;21.384;2023-03-16T04:55:50;100765.78;;;3.47;85.46
69766;BME280;57039;48.014;21.384;2023-03-16T04:56:54;100771.00;;;3.46;85.71
69766;BME280;57039;48.014;21.384;2023-03-16T04:57:58;100759.72;;;3.48;84.85
69766;BME280;57039;48.014;21.384;2023-03-16T04:59:04;100770.91;;;3.50;85.16
69766;BME280;57039;48.014;21.384;2023-03-16T05:00:10;100770.09;;;3.48;85.63
69766;BME280;57039;48.014;21.384;2023-03-16T05:01:23;100768.34;;;3.49;85.84
69766;BME280;57039;48.014;21.384;2023-03-16T05:02:28;100781.34;;;3.47;85.87
69766;BME280;57039;48.014;21.384;2023-03-16T05:03:33;100778.72;;;3.49;86.14
69766;BME280;57039;48.014;21.384;2023-03-16T05:04:37;100771.84;;;3.46;86.31
69766;BME280;57039;48.014;21.384;2023-03-16T05:05:42;100780.47;;;3.47;86.79
69766;BME280;57039;48.014;21.384;2023-03-16T05:06:49;100777.94;;;3.45;87.00
69766;BME280;57039;48.014;21.384;2023-03-16T05:07:55;100779.69;;;3.45;86.97
69766;BME280;57039;48.014;21.384;2023-03-16T05:09:01;100775.34;;;3.45;87.50
69766;BME280;57039;48.014;21.384;2023-03-16T05:10:09;100774.50;;;3.43;88.07
69766;BME280;57039;48.014;21.384;2023-03-16T05:11:13;100775.41;;;3.40;88.44
69766;BME280;57039;48.014;21.384;2023-03-16T05:12:20;100772.81;;;3.42;88.66
69766;BME280;57039;48.014;21.384;2023-03-16T05:13:25;100782.34;;;3.41;87.93
69766;BME280;57039;48.014;21.384;2023-03-16T05:14:29;100775.41;;;3.42;88.00
69766;BME280;57039;48.014;21.384;2023-03-16T05:15:32;100773.69;;;3.41;88.03
69766;BME280;57039;48.014;21.384;2023-03-16T05:16:36;100777.09;;;3.43;88.13
69766;BME280;57039;48.014;21.384;2023-03-16T05:17:40;100779.69;;;3.43;88.45
69766;BME280;57039;48.014;21.384;2023-03-16T05:18:44;100768.66;;;3.33;88.60
69766;BME280;57039;48.014;21.384;2023-03-16T05:19:48;100778.00;;;3.42;89.21
69766;BME280;57039;48.014;21.384;2023-03-16T05:20:52;100782.34;;;3.41;89.27
69766;BME280;57039;48.014;21.384;2023-03-16T05:21:58;100779.81;;;3.38;89.12
69766;BME280;57039;48.014;21.384;2023-03-16T05:23:02;100778.91;;;3.39;89.45
69766;BME280;57039;48.014;21.384;2023-03-16T05:24:06;100786.69;;;3.39;89.16
69766;BME280;57039;48.014;21.384;2023-03-16T05:25:09;100786.69;;;3.39;89.52
69766;BME280;57039;48.014;21.384;2023-03-16T05:26:19;100787.59;;;3.38;89.60
69766;BME280;57039;48.014;21.384;2023-03-16T05:27:25;100786.63;;;3.41;88.81
69766;BME280;57039;48.014;21.384;2023-03-16T05:28:29;100784.03;;;3.42;89.00
69766;BME280;57039;48.014;21.384;2023-03-16T05:29:34;100781.44;;;3.42;89.61
69766;BME280;57039;48.014;21.384;2023-03-16T05:30:38;100783.13;;;3.43;90.22
69766;BME280;57039;48.014;21.384;2023-03-16T05:31:48;100785.72;;;3.43;88.54
69766;BME280;57039;48.014;21.384;2023-03-16T05:32:52;100785.66;;;3.47;88.04
69766;BME280;57039;48.014;21.384;2023-03-16T05:33:57;100790.78;;;3.50;88.02
69766;BME280;57039;48.014;21.384;2023-03-16T05:35:00;100778.78;;;3.46;88.59
69766;BME280;57039;48.014;21.384;2023-03-16T05:36:05;100786.44;;;3.52;89.24
69766;BME280;57039;48.014;21.384;2023-03-16T05:37:09;100790.72;;;3.53;89.05
69766;BME280;57039;48.014;21.384;2023-03-16T05:38:12;100789.84;;;3.54;89.24
69766;BME280;57039;48.014;21.384;2023-03-16T05:39:16;100790.78;;;3.50;89.25
69766;BME280;57039;48.014;21.384;2023-03-16T05:40:19;100795.03;;;3.54;89.00
69766;BME280;57039;48.014;21.384;2023-03-16T05:41:25;100788.94;;;3.55;89.46
69766;BME280;57039;48.014;21.384;2023-03-16T05:42:28;100798.44;;;3.56;88.59
69766;BME280;57039;48.014;21.384;2023-03-16T05:43:33;100797.59;;;3.55;89.04
69766;BME280;57039;48.014;21.384;2023-03-16T05:44:37;100799.25;;;3.58;89.23
69766;BME280;57039;48.014;21.384;2023-03-16T05:45:42;100805.28;;;3.60;88.99
69766;BME280;57039;48.014;21.384;2023-03-16T05:46:47;100797.50;;;3.60;88.20
69766;BME280;57039;48.014;21.384;2023-03-16T05:47:51;100805.16;;;3.64;88.68
69766;BME280;57039;48.014;21.384;2023-03-16T05:48:55;100809.50;;;3.64;88.88
69766;BME280;57039;48.014;21.384;2023-03-16T05:49:58;100812.03;;;3.67;88.40
69766;BME280;57039;48.014;21.384;2023-03-16T05:51:04;100810.28;;;3.67;88.81